sensor_id;sensor_type;location;lat;lon;timestamp;P1;durP1;ratioP1;P2;durP2;ratioP2
17993;SDS011;9122;48.406;9.984;2023-04-25T00:01:33;3.50;;;3.20;;
17993;SDS011;9122;48.406;9.984;2023-04-25T00:04:19;3.50;;;3.20;;
17993;SDS011;9122;48.406;9.984;2023-04-25T00:07:05;3.47;;;3.17;;
17993;SDS011;9122;48.406;9.984;2023-04-25T00:09:49;3.30;;;3.10;;
17993;SDS011;9122;48.406;9.984;2023-04-25T00:12:34;3.23;;;3.03;;
17993;SDS011;9122;48.406;9.984;2023-04-25T00:15:19;4.23;;;3.30;;
17993;SDS011;9122;48.406;9.984;2023-04-25T00:18:04;3.63;;;3.33;;
17993;SDS011;9122;48.406;9.984;2023-04-25T00:20:49;4.07;;;3.73;;
17993;SDS011;9122;48.406;9.984;2023-04-25T00:23:33;4.10;;;3.40;;
17993;SDS011;9122;48.406;9.984;2023-04-25T00:26:19;3.50;;;3.30;;
17993;SDS011;9122;48.406;9.984;2023-04-25T00:29:06;4.63;;;3.50;;
17993;SDS011;9122;48.406;9.984;2023-04-25T00:31:51;4.33;;;4.00;;
17993;SDS011;9122;48.406;9.984;2023-04-25T00:34:35;3.23;;;3.03;;
17993;SDS011;9122;48.406;9.984;2023-04-25T00:37:19;3.53;;;3.00;;
17993;SDS011;9122;48.406;9.984;2023-04-25T00:40:07;3.63;;;3.33;;
17993;SDS011;9122;48.406;9.984;2023-04-25T00:42:52;3.73;;;3.50;;
17993;SDS011;9122;48.406;9.984;2023-04-25T00:45:38;3.73;;;3.53;;
17993;SDS011;9122;48.406;9.984;2023-04-25T00:48:23;3.63;;;3.33;;
17993;SDS011;9122;48.406;9.984;2023-04-25T00:51:07;3.93;;;3.63;;
17993;SDS011;9122;48.406;9.984;2023-04-25T00:53:52;3.93;;;3.63;;
17993;SDS011;9122;48.406;9.984;2023-04-25T00:56:37;3.53;;;3.20;;
17993;SDS011;9122;48.406;9.984;2023-04-25T00:59:22;3.27;;;3.07;;
17993;SDS011;9122;48.406;9.984;2023-04-25T01:02:07;3.33;;;3.13;;
17993;SDS011;9122;48.406;9.984;2023-04-25T01:04:52;3.60;;;3.30;;
17993;SDS011;9122;48.406;9.984;2023-04-25T01:07:37;2.73;;;2.53;;
17993;SDS011;9122;48.406;9.984;2023-04-25T01:10:22;3.30;;;3.10;;
17993;SDS011;9122;48.406;9.984;2023-04-25T01:13:06;3.37;;;3.03;;
17993;SDS011;9122;48.406;9.984;2023-04-25T01:15:51;3.00;;;2.80;;
17993;SDS011;9122;48.406;9.984;2023-04-25T01:18:37;2.60;;;2.40;;
17993;SDS011;9122;48.406;9.984;2023-04-25T01:21:24;2.73;;;2.63;;
17993;SDS011;9122;48.406;9.984;2023-04-25T01:24:11;3.33;;;3.13;;
17993;SDS011;9122;48.406;9.984;2023-04-25T01:26:56;4.97;;;3.13;;
17993;SDS011;9122;48.406;9.984;2023-04-25T01:29:42;3.10;;;2.80;;
17993;SDS011;9122;48.406;9.984;2023-04-25T01:32:27;3.83;;;2.90;;
17993;SDS011;9122;48.406;9.984;2023-04-25T01:35:11;2.47;;;2.27;;
17993;SDS011;9122;48.406;9.984;2023-04-25T01:37:56;2.77;;;2.57;;
17993;SDS011;9122;48.406;9.984;2023-04-25T01:40:40;3.00;;;2.77;;
17993;SDS011;9122;48.406;9.984;2023-04-25T01:43:25;4.00;;;3.70;;
17993;SDS011;9122;48.406;9.984;2023-04-25T01:46:10;3.90;;;3.43;;
17993;SDS011;9122;48.406;9.984;2023-04-25T01:48:55;3.83;;;3.43;;
17993;SDS011;9122;48.406;9.984;2023-04-25T01:51:40;4.53;;;3.30;;
17993;SDS011;9122;48.406;9.984;2023-04-25T01:54:25;3.60;;;3.30;;
17993;SDS011;9122;48.406;9.984;2023-04-25T01:57:10;3.87;;;3.57;;
17993;SDS011;9122;48.406;9.984;2023-04-25T01:59:58;4.00;;;3.70;;
17993;SDS011;9122;48.406;9.984;2023-04-25T02:02:45;3.70;;;3.40;;
17993;SDS011;9122;48.406;9.984;2023-04-25T02:05:33;3.80;;;3.50;;
17993;SDS011;9122;48.406;9.984;2023-04-25T02:08:20;4.03;;;3.57;;
17993;SDS011;9122;48.406;9.984;2023-04-25T02:11:04;4.10;;;3.80;;
17993;SDS011;9122;48.406;9.984;2023-04-25T02:13:49;4.27;;;3.40;;
17993;SDS011;9122;48.406;9.984;2023-04-25T02:16:33;3.73;;;3.43;;
17993;SDS011;9122;48.406;9.984;2023-04-25T02:19:19;3.70;;;3.50;;
17993;SDS011;9122;48.406;9.984;2023-04-25T02:22:03;3.70;;;3.30;;
17993;SDS011;9122;48.406;9.984;2023-04-25T02:24:47;4.07;;;3.77;;
17993;SDS011;9122;48.406;9.984;2023-04-25T02:27:32;5.03;;;3.67;;
17993;SDS011;9122;48.406;9.984;2023-04-25T02:30:16;3.50;;;3.13;;
17993;SDS011;9122;48.406;9.984;2023-04-25T02:33:00;3.83;;;3.53;;
17993;SDS011;9122;48.406;9.984;2023-04-25T02:35:44;4.00;;;3.70;;
17993;SDS011;9122;48.406;9.984;2023-04-25T02:38:29;3.87;;;3.57;;
17993;SDS011;9122;48.406;9.984;2023-04-25T02:41:13;4.20;;;3.87;;
17993;SDS011;9122;48.406;9.984;2023-04-25T02:43:58;4.20;;;3.87;;
17993;SDS011;9122;48.406;9.984;2023-04-25T02:46:42;4.97;;;4.47;;
17993;SDS011;9122;48.406;9.984;2023-04-25T02:49:27;4.40;;;3.80;;
17993;SDS011;9122;48.406;9.984;2023-04-25T02:52:12;4.10;;;3.80;;
17993;SDS011;9122;48.406;9.984;2023-04-25T02:54:59;4.43;;;4.07;;
17993;SDS011;9122;48.406;9.984;2023-04-25T02:57:44;4.93;;;3.97;;
17993;SDS011;9122;48.406;9.984;2023-04-25T03:00:28;4.10;;;3.70;;
17993;SDS011;9122;48.406;9.984;2023-04-25T03:03:12;4.27;;;3.97;;
17993;SDS011;9122;48.406;9.984;2023-04-25T03:05:56;3.33;;;3.13;;
17993;SDS011;9122;48.406;9.984;2023-04-25T03:08:41;4.00;;;3.70;;
17993;SDS011;9122;48.406;9.984;2023-04-25T03:11:25;4.17;;;3.77;;
17993;SDS011;9122;48.406;9.984;2023-04-25T03:14:09;5.27;;;4.00;;
17993;SDS011;9122;48.406;9.984;2023-04-25T03:16:54;4.23;;;3.93;;
17993;SDS011;9122;48.406;9.984;2023-04-25T03:19:38;4.40;;;4.03;;
17993;SDS011;9122;48.406;9.984;2023-04-25T03:22:23;4.80;;;3.87;;
17993;SDS011;9122;48.406;9.984;2023-04-25T03:25:08;4.37;;;3.97;;
17993;SDS011;9122;48.406;9.984;2023-04-25T03:27:52;4.10;;;3.80;;
17993;SDS011;9122;48.406;9.984;2023-04-25T03:30:36;4.10;;;3.80;;
17993;SDS011;9122;48.406;9.984;2023-04-25T03:33:20;3.90;;;3.60;;
17993;SDS011;9122;48.406;9.984;2023-04-25T03:36:05;4.60;;;4.20;;
17993;SDS011;9122;48.406;9.984;2023-04-25T03:38:50;4.57;;;4.17;;
17993;SDS011;9122;48.406;9.984;2023-04-25T03:41:34;4.60;;;4.20;;
17993;SDS011;9122;48.406;9.984;2023-04-25T03:44:18;4.33;;;3.93;;
17993;SDS011;9122;48.406;9.984;2023-04-25T03:47:03;4.10;;;3.80;;
17993;SDS011;9122;48.406;9.984;2023-04-25T03:49:47;5.00;;;4.53;;
17993;SDS011;9122;48.406;9.984;2023-04-25T03:52:33;3.93;;;3.63;;
17993;SDS011;9122;48.406;9.984;2023-04-25T03:55:18;4.17;;;3.87;;
17993;SDS011;9122;48.406;9.984;2023-04-25T03:58:02;4.23;;;3.83;;
17993;SDS011;9122;48.406;9.984;2023-04-25T04:00:47;3.77;;;3.57;;
17993;SDS011;9122;48.406;9.984;2023-04-25T04:03:31;3.67;;;3.37;;
17993;SDS011;9122;48.406;9.984;2023-04-25T04:06:15;4.40;;;4.10;;
17993;SDS011;9122;48.406;9.984;2023-04-25T04:09:00;4.20;;;3.87;;
17993;SDS011;9122;48.406;9.984;2023-04-25T04:11:44;4.30;;;3.57;;
17993;SDS011;9122;48.406;9.984;2023-04-25T04:14:29;4.50;;;4.20;;
17993;SDS011;9122;48.406;9.984;2023-04-25T04:17:13;5.87;;;4.17;;
17993;SDS011;9122;48.406;9.984;2023-04-25T04:19:58;4.37;;;3.97;;
17993;SDS011;9122;48.406;9.984;2023-04-25T04:22:42;4.43;;;4.13;;
17993;SDS011;9122;48.406;9.984;2023-04-25T04:25:27;4.77;;;4.27;;
17993;SDS011;9122;48.406;9.984;2023-04-25T04:28:12;4.17;;;3.53;;
17993;SDS011;9122;48.406;9.984;2023-04-25T04:30:56;4.33;;;3.73;;
17993;SDS011;9122;48.406;9.984;2023-04-25T04:33:41;4.80;;;3.80;;
17993;SDS011;9122;48.406;9.984;2023-04-25T04:36:26;4.53;;;4.13;;
17993;SDS011;9122;48.406;9.984;2023-04-25T04:39:11;4.60;;;4.20;;
17993;SDS011;9122;48.406;9.984;2023-04-25T04:41:57;4.30;;;3.93;;
17993;SDS011;9122;48.406;9.984;2023-04-25T04:44:41;3.87;;;3.50;;
17993;SDS011;9122;48.406;9.984;2023-04-25T04:47:28;3.87;;;3.47;;
17993;SDS011;9122;48.406;9.984;2023-04-25T04:50:16;5.20;;;3.50;;
17993;SDS011;9122;48.406;9.984;2023-04-25T04:53:01;4.23;;;3.93;;
17993;SDS011;9122;48.406;9.984;2023-04-25T04:55:46;4.30;;;3.30;;
17993;SDS011;9122;48.406;9.984;2023-04-25T04:58:30;3.67;;;3.37;;
17993;SDS011;9122;48.406;9.984;2023-04-25T05:01:15;6.67;;;4.37;;
17993;SDS011;9122;48.406;9.984;2023-04-25T05:03:59;4.47;;;3.83;;
17993;SDS011;9122;48.406;9.984;2023-04-25T05:06:44;3.90;;;3.60;;
17993;SDS011;9122;48.406;9.984;2023-04-25T05:09:28;3.70;;;3.40;;
17993;SDS011;9122;48.406;9.984;2023-04-25T05:12:13;3.33;;;3.07;;
17993;SDS011;9122;48.406;9.984;2023-04-25T05:14:57;4.00;;;3.77;;
17993;SDS011;9122;48.406;9.984;2023-04-25T05:17:42;4.30;;;3.90;;
17993;SDS011;9122;48.406;9.984;2023-04-25T05:20:26;3.80;;;3.53;;
17993;SDS011;9122;48.406;9.984;2023-04-25T05:23:11;4.47;;;4.17;;
17993;SDS011;9122;48.406;9.984;2023-04-25T05:25:55;4.80;;;4.20;;
17993;SDS011;9122;48.406;9.984;2023-04-25T05:28:40;4.20;;;3.80;;
17993;SDS011;9122;48.406;9.984;2023-04-25T05:31:25;3.97;;;3.50;;
17993;SDS011;9122;48.406;9.984;2023-04-25T05:34:10;3.80;;;3.50;;
17993;SDS011;9122;48.406;9.984;2023-04-25T05:36:55;4.40;;;3.80;;
17993;SDS011;9122;48.406;9.984;2023-04-25T05:39:39;4.17;;;3.63;;
17993;SDS011;9122;48.406;9.984;2023-04-25T05:42:23;3.93;;;3.63;;
17993;SDS011;9122;48.406;9.984;2023-04-25T05:45:08;3.10;;;2.90;;
17993;SDS011;9122;48.406;9.984;2023-04-25T05:47:53;3.87;;;3.40;;
17993;SDS011;9122;48.406;9.984;2023-04-25T05:50:37;3.90;;;3.60;;
17993;SDS011;9122;48.406;9.984;2023-04-25T05:53:22;4.17;;;3.73;;
17993;SDS011;9122;48.406;9.984;2023-04-25T05:56:06;6.23;;;4.87;;
17993;SDS011;9122;48.406;9.984;2023-04-25T05:58:52;4.30;;;3.90;;
17993;SDS011;9122;48.406;9.984;2023-04-25T06:01:36;4.60;;;3.83;;
17993;SDS011;9122;48.406;9.984;2023-04-25T06:04:21;4.47;;;3.40;;
17993;SDS011;9122;48.406;9.984;2023-04-25T06:07:05;3.80;;;3.50;;
17993;SDS011;9122;48.406;9.984;2023-04-25T06:09:50;4.17;;;3.87;;
17993;SDS011;9122;48.406;9.984;2023-04-25T06:12:34;4.43;;;3.63;;
17993;SDS011;9122;48.406;9.984;2023-04-25T06:15:19;3.53;;;3.23;;
17993;SDS011;9122;48.406;9.984;2023-04-25T06:18:03;5.20;;;3.60;;
17993;SDS011;9122;48.406;9.984;2023-04-25T06:20:48;4.13;;;3.30;;
17993;SDS011;9122;48.406;9.984;2023-04-25T06:23:32;3.73;;;3.43;;
17993;SDS011;9122;48.406;9.984;2023-04-25T06:26:17;4.73;;;3.47;;
17993;SDS011;9122;48.406;9.984;2023-04-25T06:29:02;3.80;;;3.13;;
17993;SDS011;9122;48.406;9.984;2023-04-25T06:31:46;3.80;;;2.97;;
17993;SDS011;9122;48.406;9.984;2023-04-25T06:34:31;3.20;;;3.00;;
17993;SDS011;9122;48.406;9.984;2023-04-25T06:37:15;3.57;;;2.80;;
17993;SDS011;9122;48.406;9.984;2023-04-25T06:39:59;3.10;;;2.90;;
17993;SDS011;9122;48.406;9.984;2023-04-25T06:42:44;3.80;;;2.67;;
17993;SDS011;9122;48.406;9.984;2023-04-25T06:45:28;2.53;;;2.43;;
17993;SDS011;9122;48.406;9.984;2023-04-25T06:48:13;2.87;;;2.67;;
17993;SDS011;9122;48.406;9.984;2023-04-25T06:50:58;3.60;;;3.17;;
17993;SDS011;9122;48.406;9.984;2023-04-25T06:53:42;3.17;;;2.97;;
17993;SDS011;9122;48.406;9.984;2023-04-25T06:56:28;3.17;;;2.87;;
17993;SDS011;9122;48.406;9.984;2023-04-25T06:59:14;3.90;;;2.40;;
17993;SDS011;9122;48.406;9.984;2023-04-25T07:01:58;4.57;;;2.90;;
17993;SDS011;9122;48.406;9.984;2023-04-25T07:04:43;2.90;;;2.70;;
17993;SDS011;9122;48.406;9.984;2023-04-25T07:07:29;2.93;;;2.73;;
17993;SDS011;9122;48.406;9.984;2023-04-25T07:10:14;2.73;;;2.53;;
17993;SDS011;9122;48.406;9.984;2023-04-25T07:12:59;3.13;;;2.83;;
17993;SDS011;9122;48.406;9.984;2023-04-25T07:15:43;2.67;;;2.47;;
17993;SDS011;9122;48.406;9.984;2023-04-25T07:18:28;4.47;;;3.07;;
17993;SDS011;9122;48.406;9.984;2023-04-25T07:21:12;2.90;;;2.40;;
17993;SDS011;9122;48.406;9.984;2023-04-25T07:23:57;2.87;;;2.63;;
17993;SDS011;9122;48.406;9.984;2023-04-25T07:26:42;2.90;;;2.40;;
17993;SDS011;9122;48.406;9.984;2023-04-25T07:29:27;2.67;;;2.47;;
17993;SDS011;9122;48.406;9.984;2023-04-25T07:32:11;4.40;;;2.30;;
17993;SDS011;9122;48.406;9.984;2023-04-25T07:34:57;2.93;;;2.67;;
17993;SDS011;9122;48.406;9.984;2023-04-25T07:37:42;2.97;;;2.77;;
17993;SDS011;9122;48.406;9.984;2023-04-25T07:40:26;2.70;;;2.50;;
17993;SDS011;9122;48.406;9.984;2023-04-25T07:43:11;4.50;;;3.23;;
17993;SDS011;9122;48.406;9.984;2023-04-25T07:45:58;4.70;;;3.37;;
17993;SDS011;9122;48.406;9.984;2023-04-25T07:48:42;5.30;;;3.47;;
17993;SDS011;9122;48.406;9.984;2023-04-25T07:51:27;3.90;;;3.27;;
17993;SDS011;9122;48.406;9.984;2023-04-25T07:54:14;3.73;;;3.43;;
17993;SDS011;9122;48.406;9.984;2023-04-25T07:56:59;3.60;;;3.30;;
17993;SDS011;9122;48.406;9.984;2023-04-25T07:59:44;5.70;;;4.03;;
17993;SDS011;9122;48.406;9.984;2023-04-25T08:02:28;4.90;;;3.57;;
17993;SDS011;9122;48.406;9.984;2023-04-25T08:05:13;5.03;;;3.03;;
17993;SDS011;9122;48.406;9.984;2023-04-25T08:07:58;4.80;;;3.20;;
17993;SDS011;9122;48.406;9.984;2023-04-25T08:10:42;3.43;;;3.17;;
17993;SDS011;9122;48.406;9.984;2023-04-25T08:13:27;3.87;;;3.37;;
17993;SDS011;9122;48.406;9.984;2023-04-25T08:16:12;3.70;;;3.40;;
17993;SDS011;9122;48.406;9.984;2023-04-25T08:18:56;3.17;;;2.87;;
17993;SDS011;9122;48.406;9.984;2023-04-25T08:21:42;2.50;;;2.30;;
17993;SDS011;9122;48.406;9.984;2023-04-25T08:24:27;2.57;;;2.10;;
17993;SDS011;9122;48.406;9.984;2023-04-25T08:27:11;2.80;;;2.20;;
17993;SDS011;9122;48.406;9.984;2023-04-25T08:29:56;3.93;;;3.63;;
17993;SDS011;9122;48.406;9.984;2023-04-25T08:32:42;2.53;;;2.27;;
17993;SDS011;9122;48.406;9.984;2023-04-25T08:35:26;2.67;;;2.10;;
17993;SDS011;9122;48.406;9.984;2023-04-25T08:38:10;1.80;;;1.70;;
17993;SDS011;9122;48.406;9.984;2023-04-25T08:40:55;3.70;;;2.43;;
17993;SDS011;9122;48.406;9.984;2023-04-25T08:43:43;2.07;;;1.97;;
17993;SDS011;9122;48.406;9.984;2023-04-25T08:46:28;2.20;;;2.10;;
17993;SDS011;9122;48.406;9.984;2023-04-25T08:49:14;2.40;;;2.20;;
17993;SDS011;9122;48.406;9.984;2023-04-25T08:52:01;4.30;;;2.97;;
17993;SDS011;9122;48.406;9.984;2023-04-25T08:54:49;3.10;;;2.80;;
17993;SDS011;9122;48.406;9.984;2023-04-25T08:57:36;3.77;;;3.10;;
17993;SDS011;9122;48.406;9.984;2023-04-25T09:00:21;3.57;;;3.10;;
17993;SDS011;9122;48.406;9.984;2023-04-25T09:03:06;3.50;;;3.20;;
17993;SDS011;9122;48.406;9.984;2023-04-25T09:05:51;3.60;;;3.10;;
17993;SDS011;9122;48.406;9.984;2023-04-25T09:08:36;3.20;;;2.90;;
17993;SDS011;9122;48.406;9.984;2023-04-25T09:11:23;3.93;;;3.03;;
17993;SDS011;9122;48.406;9.984;2023-04-25T09:17:04;5.93;;;2.57;;
17993;SDS011;9122;48.406;9.984;2023-04-25T09:19:51;3.47;;;3.20;;
17993;SDS011;9122;48.406;9.984;2023-04-25T09:22:36;3.83;;;3.43;;
17993;SDS011;9122;48.406;9.984;2023-04-25T09:25:21;3.70;;;3.40;;
17993;SDS011;9122;48.406;9.984;2023-04-25T09:28:06;2.93;;;2.47;;
17993;SDS011;9122;48.406;9.984;2023-04-25T09:30:54;3.03;;;2.73;;
17993;SDS011;9122;48.406;9.984;2023-04-25T09:33:41;3.30;;;3.00;;
17993;SDS011;9122;48.406;9.984;2023-04-25T09:36:26;3.27;;;2.93;;
17993;SDS011;9122;48.406;9.984;2023-04-25T09:39:12;3.07;;;2.83;;
17993;SDS011;9122;48.406;9.984;2023-04-25T09:41:59;3.07;;;2.77;;
17993;SDS011;9122;48.406;9.984;2023-04-25T09:44:46;3.03;;;2.83;;
17993;SDS011;9122;48.406;9.984;2023-04-25T09:47:31;3.17;;;2.90;;
17993;SDS011;9122;48.406;9.984;2023-04-25T09:50:16;2.60;;;2.40;;
17993;SDS011;9122;48.406;9.984;2023-04-25T09:53:03;2.50;;;2.40;;
17993;SDS011;9122;48.406;9.984;2023-04-25T09:55:49;2.27;;;2.17;;
17993;SDS011;9122;48.406;9.984;2023-04-25T09:58:35;2.50;;;2.30;;
17993;SDS011;9122;48.406;9.984;2023-04-25T10:01:20;3.17;;;2.37;;
17993;SDS011;9122;48.406;9.984;2023-04-25T10:04:12;2.40;;;2.30;;
17993;SDS011;9122;48.406;9.984;2023-04-25T10:06:58;1.90;;;1.80;;
17993;SDS011;9122;48.406;9.984;2023-04-25T10:09:43;2.93;;;2.73;;
17993;SDS011;9122;48.406;9.984;2023-04-25T10:12:33;2.53;;;2.20;;
17993;SDS011;9122;48.406;9.984;2023-04-25T10:15:18;2.77;;;2.57;;
17993;SDS011;9122;48.406;9.984;2023-04-25T10:18:03;2.80;;;2.60;;
17993;SDS011;9122;48.406;9.984;2023-04-25T10:20:50;2.83;;;2.63;;
17993;SDS011;9122;48.406;9.984;2023-04-25T10:23:34;2.93;;;2.73;;
17993;SDS011;9122;48.406;9.984;2023-04-25T10:26:20;3.03;;;2.83;;
17993;SDS011;9122;48.406;9.984;2023-04-25T10:29:05;2.80;;;2.70;;
17993;SDS011;9122;48.406;9.984;2023-04-25T10:31:50;2.97;;;2.70;;
17993;SDS011;9122;48.406;9.984;2023-04-25T10:34:38;2.60;;;1.70;;
17993;SDS011;9122;48.406;9.984;2023-04-25T10:37:24;2.13;;;2.03;;
17993;SDS011;9122;48.406;9.984;2023-04-25T10:40:09;2.20;;;2.00;;
17993;SDS011;9122;48.406;9.984;2023-04-25T10:42:54;1.73;;;1.63;;
17993;SDS011;9122;48.406;9.984;2023-04-25T10:45:52;1.80;;;1.70;;
17993;SDS011;9122;48.406;9.984;2023-04-25T10:48:36;2.00;;;1.90;;
17993;SDS011;9122;48.406;9.984;2023-04-25T10:54:15;2.27;;;2.07;;
17993;SDS011;9122;48.406;9.984;2023-04-25T10:57:01;2.37;;;2.17;;
17993;SDS011;9122;48.406;9.984;2023-04-25T10:59:46;2.50;;;2.30;;
17993;SDS011;9122;48.406;9.984;2023-04-25T11:02:30;2.30;;;2.20;;
17993;SDS011;9122;48.406;9.984;2023-04-25T11:05:29;2.50;;;2.30;;
17993;SDS011;9122;48.406;9.984;2023-04-25T11:08:20;2.10;;;2.00;;
17993;SDS011;9122;48.406;9.984;2023-04-25T11:11:26;1.80;;;1.70;;
17993;SDS011;9122;48.406;9.984;2023-04-25T11:14:13;2.07;;;1.77;;
17993;SDS011;9122;48.406;9.984;2023-04-25T11:16:57;2.07;;;1.80;;
17993;SDS011;9122;48.406;9.984;2023-04-25T11:19:43;2.27;;;2.17;;
17993;SDS011;9122;48.406;9.984;2023-04-25T11:22:27;1.70;;;1.60;;
17993;SDS011;9122;48.406;9.984;2023-04-25T11:25:14;1.70;;;1.60;;
17993;SDS011;9122;48.406;9.984;2023-04-25T11:28:00;2.03;;;1.83;;
17993;SDS011;9122;48.406;9.984;2023-04-25T11:30:47;2.30;;;2.00;;
17993;SDS011;9122;48.406;9.984;2023-04-25T11:33:34;1.80;;;1.70;;
17993;SDS011;9122;48.406;9.984;2023-04-25T11:36:19;2.37;;;2.27;;
17993;SDS011;9122;48.406;9.984;2023-04-25T11:39:03;1.87;;;1.77;;
17993;SDS011;9122;48.406;9.984;2023-04-25T11:41:49;2.03;;;1.93;;
17993;SDS011;9122;48.406;9.984;2023-04-25T11:44:34;1.80;;;1.70;;
17993;SDS011;9122;48.406;9.984;2023-04-25T11:47:18;2.57;;;2.37;;
17993;SDS011;9122;48.406;9.984;2023-04-25T11:50:03;1.80;;;1.70;;
17993;SDS011;9122;48.406;9.984;2023-04-25T11:52:49;2.00;;;1.90;;
17993;SDS011;9122;48.406;9.984;2023-04-25T11:55:34;1.70;;;1.60;;
17993;SDS011;9122;48.406;9.984;2023-04-25T11:58:19;1.50;;;1.50;;
17993;SDS011;9122;48.406;9.984;2023-04-25T12:01:04;2.00;;;1.90;;
17993;SDS011;9122;48.406;9.984;2023-04-25T12:03:49;1.63;;;1.53;;
17993;SDS011;9122;48.406;9.984;2023-04-25T12:06:34;1.70;;;1.60;;
17993;SDS011;9122;48.406;9.984;2023-04-25T12:09:30;1.77;;;1.67;;
17993;SDS011;9122;48.406;9.984;2023-04-25T12:12:16;2.00;;;1.87;;
17993;SDS011;9122;48.406;9.984;2023-04-25T12:15:35;2.00;;;1.90;;
17993;SDS011;9122;48.406;9.984;2023-04-25T12:18:12;1.70;;;1.60;;
17993;SDS011;9122;48.406;9.984;2023-04-25T12:20:57;1.87;;;1.77;;
17993;SDS011;9122;48.406;9.984;2023-04-25T12:23:44;1.83;;;1.73;;
17993;SDS011;9122;48.406;9.984;2023-04-25T12:26:45;1.50;;;1.43;;
17993;SDS011;9122;48.406;9.984;2023-04-25T12:29:32;2.00;;;1.90;;
17993;SDS011;9122;48.406;9.984;2023-04-25T12:32:18;2.13;;;2.03;;
17993;SDS011;9122;48.406;9.984;2023-04-25T12:35:02;2.40;;;2.20;;
17993;SDS011;9122;48.406;9.984;2023-04-25T12:37:47;2.03;;;1.93;;
17993;SDS011;9122;48.406;9.984;2023-04-25T12:40:32;1.57;;;1.47;;
17993;SDS011;9122;48.406;9.984;2023-04-25T12:43:16;1.50;;;1.40;;
17993;SDS011;9122;48.406;9.984;2023-04-25T12:46:01;1.13;;;1.10;;
17993;SDS011;9122;48.406;9.984;2023-04-25T12:48:45;1.10;;;1.10;;
17993;SDS011;9122;48.406;9.984;2023-04-25T12:51:30;1.50;;;1.40;;
17993;SDS011;9122;48.406;9.984;2023-04-25T12:54:19;1.20;;;1.20;;
17993;SDS011;9122;48.406;9.984;2023-04-25T12:57:03;1.57;;;0.90;;
17993;SDS011;9122;48.406;9.984;2023-04-25T12:59:48;0.97;;;0.67;;
17993;SDS011;9122;48.406;9.984;2023-04-25T13:02:32;0.40;;;0.40;;
17993;SDS011;9122;48.406;9.984;2023-04-25T13:05:16;0.73;;;0.73;;
17993;SDS011;9122;48.406;9.984;2023-04-25T13:08:01;0.40;;;0.40;;
17993;SDS011;9122;48.406;9.984;2023-04-25T13:10:47;0.40;;;0.40;;
17993;SDS011;9122;48.406;9.984;2023-04-25T13:13:31;0.43;;;0.43;;
17993;SDS011;9122;48.406;9.984;2023-04-25T13:16:16;0.50;;;0.50;;
17993;SDS011;9122;48.406;9.984;2023-04-25T13:19:00;0.60;;;0.60;;
17993;SDS011;9122;48.406;9.984;2023-04-25T13:21:45;0.70;;;0.70;;
17993;SDS011;9122;48.406;9.984;2023-04-25T13:24:29;0.80;;;0.80;;
17993;SDS011;9122;48.406;9.984;2023-04-25T13:27:13;0.70;;;0.70;;
17993;SDS011;9122;48.406;9.984;2023-04-25T13:29:58;0.80;;;0.80;;
17993;SDS011;9122;48.406;9.984;2023-04-25T13:32:43;0.80;;;0.60;;
17993;SDS011;9122;48.406;9.984;2023-04-25T13:35:28;0.80;;;0.80;;
17993;SDS011;9122;48.406;9.984;2023-04-25T13:38:13;3.17;;;1.20;;
17993;SDS011;9122;48.406;9.984;2023-04-25T13:41:00;1.10;;;1.10;;
17993;SDS011;9122;48.406;9.984;2023-04-25T13:43:45;1.00;;;1.00;;
17993;SDS011;9122;48.406;9.984;2023-04-25T13:46:31;1.00;;;1.00;;
17993;SDS011;9122;48.406;9.984;2023-04-25T13:49:15;1.50;;;1.40;;
17993;SDS011;9122;48.406;9.984;2023-04-25T13:52:00;1.63;;;1.53;;
17993;SDS011;9122;48.406;9.984;2023-04-25T13:54:44;1.60;;;1.50;;
17993;SDS011;9122;48.406;9.984;2023-04-25T13:57:28;1.50;;;1.40;;
17993;SDS011;9122;48.406;9.984;2023-04-25T14:00:16;2.00;;;1.90;;
17993;SDS011;9122;48.406;9.984;2023-04-25T14:03:00;2.20;;;2.00;;
17993;SDS011;9122;48.406;9.984;2023-04-25T14:05:48;1.70;;;1.60;;
17993;SDS011;9122;48.406;9.984;2023-04-25T14:08:34;2.00;;;1.90;;
17993;SDS011;9122;48.406;9.984;2023-04-25T14:11:19;1.90;;;1.80;;
17993;SDS011;9122;48.406;9.984;2023-04-25T14:14:03;2.20;;;2.10;;
17993;SDS011;9122;48.406;9.984;2023-04-25T14:16:49;1.80;;;1.70;;
17993;SDS011;9122;48.406;9.984;2023-04-25T14:19:34;2.00;;;1.90;;
17993;SDS011;9122;48.406;9.984;2023-04-25T14:22:18;1.80;;;1.70;;
17993;SDS011;9122;48.406;9.984;2023-04-25T14:25:03;1.77;;;1.67;;
17993;SDS011;9122;48.406;9.984;2023-04-25T14:27:49;1.70;;;1.60;;
17993;SDS011;9122;48.406;9.984;2023-04-25T14:30:33;4.13;;;1.70;;
17993;SDS011;9122;48.406;9.984;2023-04-25T14:33:17;1.83;;;1.73;;
17993;SDS011;9122;48.406;9.984;2023-04-25T14:36:02;2.00;;;1.90;;
17993;SDS011;9122;48.406;9.984;2023-04-25T14:38:46;1.57;;;1.47;;
17993;SDS011;9122;48.406;9.984;2023-04-25T14:41:31;1.93;;;1.83;;
17993;SDS011;9122;48.406;9.984;2023-04-25T14:44:16;2.00;;;1.90;;
17993;SDS011;9122;48.406;9.984;2023-04-25T14:47:00;1.90;;;1.80;;
17993;SDS011;9122;48.406;9.984;2023-04-25T14:49:44;1.90;;;1.80;;
17993;SDS011;9122;48.406;9.984;2023-04-25T14:52:34;1.60;;;1.50;;
17993;SDS011;9122;48.406;9.984;2023-04-25T14:55:19;1.83;;;1.73;;
17993;SDS011;9122;48.406;9.984;2023-04-25T14:58:04;2.10;;;1.93;;
17993;SDS011;9122;48.406;9.984;2023-04-25T15:00:48;2.50;;;2.30;;
17993;SDS011;9122;48.406;9.984;2023-04-25T15:03:33;1.90;;;1.80;;
17993;SDS011;9122;48.406;9.984;2023-04-25T15:06:17;1.80;;;1.70;;
17993;SDS011;9122;48.406;9.984;2023-04-25T15:09:02;2.57;;;2.40;;
17993;SDS011;9122;48.406;9.984;2023-04-25T15:11:47;2.83;;;2.37;;
17993;SDS011;9122;48.406;9.984;2023-04-25T15:14:31;2.43;;;2.20;;
17993;SDS011;9122;48.406;9.984;2023-04-25T15:17:17;2.83;;;2.67;;
17993;SDS011;9122;48.406;9.984;2023-04-25T15:20:01;2.80;;;2.60;;
17993;SDS011;9122;48.406;9.984;2023-04-25T15:22:45;3.23;;;2.73;;
17993;SDS011;9122;48.406;9.984;2023-04-25T15:25:32;2.60;;;2.50;;
17993;SDS011;9122;48.406;9.984;2023-04-25T15:28:17;2.47;;;2.33;;
17993;SDS011;9122;48.406;9.984;2023-04-25T15:31:02;2.40;;;2.30;;
17993;SDS011;9122;48.406;9.984;2023-04-25T15:33:47;2.40;;;2.30;;
17993;SDS011;9122;48.406;9.984;2023-04-25T15:36:31;2.30;;;2.07;;
17993;SDS011;9122;48.406;9.984;2023-04-25T15:39:15;3.00;;;2.80;;
17993;SDS011;9122;48.406;9.984;2023-04-25T15:42:00;2.50;;;2.30;;
17993;SDS011;9122;48.406;9.984;2023-04-25T15:44:47;3.50;;;3.20;;
17993;SDS011;9122;48.406;9.984;2023-04-25T15:47:31;2.90;;;2.70;;
17993;SDS011;9122;48.406;9.984;2023-04-25T15:50:17;3.00;;;2.80;;
17993;SDS011;9122;48.406;9.984;2023-04-25T15:53:02;3.43;;;3.17;;
17993;SDS011;9122;48.406;9.984;2023-04-25T15:55:46;3.00;;;2.80;;
17993;SDS011;9122;48.406;9.984;2023-04-25T15:58:31;3.43;;;3.13;;
17993;SDS011;9122;48.406;9.984;2023-04-25T16:01:15;3.90;;;3.13;;
17993;SDS011;9122;48.406;9.984;2023-04-25T16:04:00;4.33;;;3.93;;
17993;SDS011;9122;48.406;9.984;2023-04-25T16:06:44;3.87;;;3.63;;
17993;SDS011;9122;48.406;9.984;2023-04-25T16:09:29;4.40;;;3.50;;
17993;SDS011;9122;48.406;9.984;2023-04-25T16:12:14;3.03;;;2.83;;
17993;SDS011;9122;48.406;9.984;2023-04-25T16:14:58;4.13;;;3.80;;
17993;SDS011;9122;48.406;9.984;2023-04-25T16:17:43;2.60;;;2.50;;
17993;SDS011;9122;48.406;9.984;2023-04-25T16:20:27;3.03;;;2.83;;
17993;SDS011;9122;48.406;9.984;2023-04-25T16:23:12;2.87;;;2.60;;
17993;SDS011;9122;48.406;9.984;2023-04-25T16:25:57;2.50;;;2.30;;
17993;SDS011;9122;48.406;9.984;2023-04-25T16:28:41;3.17;;;2.97;;
17993;SDS011;9122;48.406;9.984;2023-04-25T16:31:26;3.83;;;3.30;;
17993;SDS011;9122;48.406;9.984;2023-04-25T16:34:10;3.73;;;3.43;;
17993;SDS011;9122;48.406;9.984;2023-04-25T16:36:55;3.43;;;3.13;;
17993;SDS011;9122;48.406;9.984;2023-04-25T16:39:39;3.43;;;3.20;;
17993;SDS011;9122;48.406;9.984;2023-04-25T16:42:24;3.83;;;3.53;;
17993;SDS011;9122;48.406;9.984;2023-04-25T16:45:08;4.10;;;3.80;;
17993;SDS011;9122;48.406;9.984;2023-04-25T16:47:53;3.83;;;3.53;;
17993;SDS011;9122;48.406;9.984;2023-04-25T16:50:38;5.20;;;3.77;;
17993;SDS011;9122;48.406;9.984;2023-04-25T16:53:23;4.13;;;3.73;;
17993;SDS011;9122;48.406;9.984;2023-04-25T16:56:08;4.33;;;3.90;;